sensor_id;sensor_type;location;lat;lon;timestamp;temperature;humidity
15777;DHT22;7989;51.198;6.676;2022-10-23T00:00:21;14.00;99.90
15777;DHT22;7989;51.198;6.676;2022-10-23T00:02:51;13.90;99.90
15777;DHT22;7989;51.198;6.676;2022-10-23T00:05:20;13.90;99.90
15777;DHT22;7989;51.198;6.676;2022-10-23T00:07:51;13.90;99.90
15777;DHT22;7989;51.198;6.676;2022-10-23T00:10:19;13.90;99.90
15777;DHT22;7989;51.198;6.676;2022-10-23T00:12:47;13.80;99.90
15777;DHT22;7989;51.198;6.676;2022-10-23T00:15:15;13.80;99.90
15777;DHT22;7989;51.198;6.676;2022-10-23T00:17:42;13.80;99.90
15777;DHT22;7989;51.198;6.676;2022-10-23T00:20:10;13.70;99.90
15777;DHT22;7989;51.198;6.676;2022-10-23T00:22:38;13.70;99.90
15777;DHT22;7989;51.198;6.676;2022-10-23T00:25:07;13.70;99.90
15777;DHT22;7989;51.198;6.676;2022-10-23T00:27:34;13.70;99.90
15777;DHT22;7989;51.198;6.676;2022-10-23T00:30:03;13.70;99.90
15777;DHT22;7989;51.198;6.676;2022-10-23T00:32:30;13.60;99.90
15777;DHT22;7989;51.198;6.676;2022-10-23T00:34:56;13.60;99.90
15777;DHT22;7989;51.198;6.676;2022-10-23T00:37:23;13.60;99.90
15777;DHT22;7989;51.198;6.676;2022-10-23T00:39:52;13.60;99.90
15777;DHT22;7989;51.198;6.676;2022-10-23T00:42:19;13.60;99.90
15777;DHT22;7989;51.198;6.676;2022-10-23T00:45:16;13.50;99.90
15777;DHT22;7989;51.198;6.676;2022-10-23T00:47:45;13.60;99.90
15777;DHT22;7989;51.198;6.676;2022-10-23T00:50:12;13.50;99.90
15777;DHT22;7989;51.198;6.676;2022-10-23T00:52:43;13.50;99.90
15777;DHT22;7989;51.198;6.676;2022-10-23T00:55:12;13.50;99.90
15777;DHT22;7989;51.198;6.676;2022-10-23T00:57:41;13.50;99.90
15777;DHT22;7989;51.198;6.676;2022-10-23T01:00:13;13.50;99.90
15777;DHT22;7989;51.198;6.676;2022-10-23T01:02:40;13.50;99.90
15777;DHT22;7989;51.198;6.676;2022-10-23T01:05:07;13.40;99.90
15777;DHT22;7989;51.198;6.676;2022-10-23T01:07:40;13.40;99.90
15777;DHT22;7989;51.198;6.676;2022-10-23T01:10:15;13.40;99.90
15777;DHT22;7989;51.198;6.676;2022-10-23T01:12:50;13.40;99.90
15777;DHT22;7989;51.198;6.676;2022-10-23T01:15:24;13.40;99.90
15777;DHT22;7989;51.198;6.676;2022-10-23T01:17:55;13.40;99.90
15777;DHT22;7989;51.198;6.676;2022-10-23T01:20:40;13.40;99.90
15777;DHT22;7989;51.198;6.676;2022-10-23T01:23:30;13.40;99.90
15777;DHT22;7989;51.198;6.676;2022-10-23T01:26:23;13.40;99.90
15777;DHT22;7989;51.198;6.676;2022-10-23T01:28:58;13.40;99.90
15777;DHT22;7989;51.198;6.676;2022-10-23T01:31:31;13.40;99.90
15777;DHT22;7989;51.198;6.676;2022-10-23T01:34:04;13.30;99.90
15777;DHT22;7989;51.198;6.676;2022-10-23T01:36:33;13.30;99.90
15777;DHT22;7989;51.198;6.676;2022-10-23T01:39:06;13.30;99.90
15777;DHT22;7989;51.198;6.676;2022-10-23T01:41:38;13.40;99.90
15777;DHT22;7989;51.198;6.676;2022-10-23T01:44:12;13.40;99.90
15777;DHT22;7989;51.198;6.676;2022-10-23T01:46:41;13.40;99.90
15777;DHT22;7989;51.198;6.676;2022-10-23T01:49:11;13.40;99.90
15777;DHT22;7989;51.198;6.676;2022-10-23T01:51:41;13.40;99.90
15777;DHT22;7989;51.198;6.676;2022-10-23T01:54:10;13.50;99.90
15777;DHT22;7989;51.198;6.676;2022-10-23T01:56:40;13.50;99.90
15777;DHT22;7989;51.198;6.676;2022-10-23T01:59:13;13.50;99.90
15777;DHT22;7989;51.198;6.676;2022-10-23T02:01:45;13.50;99.90
15777;DHT22;7989;51.198;6.676;2022-10-23T02:04:19;13.50;99.90
15777;DHT22;7989;51.198;6.676;2022-10-23T02:06:46;13.50;99.90
15777;DHT22;7989;51.198;6.676;2022-10-23T02:09:14;13.50;99.90
15777;DHT22;7989;51.198;6.676;2022-10-23T02:11:48;13.60;99.90
15777;DHT22;7989;51.198;6.676;2022-10-23T02:14:21;13.60;99.90
15777;DHT22;7989;51.198;6.676;2022-10-23T02:16:52;13.60;99.90
15777;DHT22;7989;51.198;6.676;2022-10-23T02:19:23;13.60;99.90
15777;DHT22;7989;51.198;6.676;2022-10-23T02:21:57;13.60;99.90
15777;DHT22;7989;51.198;6.676;2022-10-23T02:24:29;13.70;99.90
15777;DHT22;7989;51.198;6.676;2022-10-23T02:26:59;13.70;99.90
15777;DHT22;7989;51.198;6.676;2022-10-23T02:29:29;13.70;99.90
15777;DHT22;7989;51.198;6.676;2022-10-23T02:31:58;13.70;99.90
15777;DHT22;7989;51.198;6.676;2022-10-23T02:34:25;13.70;99.90
15777;DHT22;7989;51.198;6.676;2022-10-23T02:36:52;13.70;99.90
15777;DHT22;7989;51.198;6.676;2022-10-23T02:39:19;13.70;99.90
15777;DHT22;7989;51.198;6.676;2022-10-23T02:41:51;13.70;99.90
15777;DHT22;7989;51.198;6.676;2022-10-23T02:44:34;13.70;99.90
15777;DHT22;7989;51.198;6.676;2022-10-23T02:47:20;13.70;99.90
15777;DHT22;7989;51.198;6.676;2022-10-23T02:49:55;13.70;99.90
15777;DHT22;7989;51.198;6.676;2022-10-23T02:52:26;13.70;99.90
15777;DHT22;7989;51.198;6.676;2022-10-23T02:55:11;13.70;99.90
15777;DHT22;7989;51.198;6.676;2022-10-23T02:57:43;13.70;99.90
15777;DHT22;7989;51.198;6.676;2022-10-23T03:00:15;13.70;99.90
15777;DHT22;7989;51.198;6.676;2022-10-23T03:02:45;13.70;99.90
15777;DHT22;7989;51.198;6.676;2022-10-23T03:05:18;13.70;99.90
15777;DHT22;7989;51.198;6.676;2022-10-23T03:07:46;13.60;99.90
15777;DHT22;7989;51.198;6.676;2022-10-23T03:10:13;13.60;99.90
15777;DHT22;7989;51.198;6.676;2022-10-23T03:12:40;13.70;99.90
15777;DHT22;7989;51.198;6.676;2022-10-23T03:15:09;13.60;99.90
15777;DHT22;7989;51.198;6.676;2022-10-23T03:17:37;13.60;99.90
15777;DHT22;7989;51.198;6.676;2022-10-23T03:20:06;13.60;99.90
15777;DHT22;7989;51.198;6.676;2022-10-23T03:22:33;13.70;99.90
15777;DHT22;7989;51.198;6.676;2022-10-23T03:25:00;13.70;99.90
15777;DHT22;7989;51.198;6.676;2022-10-23T03:27:26;13.70;99.90
15777;DHT22;7989;51.198;6.676;2022-10-23T03:29:53;13.70;99.90
15777;DHT22;7989;51.198;6.676;2022-10-23T03:32:20;13.70;99.90
15777;DHT22;7989;51.198;6.676;2022-10-23T03:34:48;13.70;99.90
15777;DHT22;7989;51.198;6.676;2022-10-23T03:37:15;13.80;99.90
15777;DHT22;7989;51.198;6.676;2022-10-23T03:39:42;13.80;99.90
15777;DHT22;7989;51.198;6.676;2022-10-23T03:42:09;13.80;99.90
15777;DHT22;7989;51.198;6.676;2022-10-23T03:44:35;13.90;99.90
15777;DHT22;7989;51.198;6.676;2022-10-23T03:47:02;13.90;99.90
15777;DHT22;7989;51.198;6.676;2022-10-23T03:49:29;13.90;99.90
15777;DHT22;7989;51.198;6.676;2022-10-23T03:51:57;13.90;99.90
15777;DHT22;7989;51.198;6.676;2022-10-23T03:54:25;14.00;99.90
15777;DHT22;7989;51.198;6.676;2022-10-23T03:56:54;14.00;99.90
15777;DHT22;7989;51.198;6.676;2022-10-23T03:59:22;14.00;99.90
15777;DHT22;7989;51.198;6.676;2022-10-23T04:01:49;14.00;99.90
15777;DHT22;7989;51.198;6.676;2022-10-23T04:04:16;14.00;99.90
15777;DHT22;7989;51.198;6.676;2022-10-23T04:06:43;14.00;99.90
15777;DHT22;7989;51.198;6.676;2022-10-23T04:09:11;14.00;99.90
15777;DHT22;7989;51.198;6.676;2022-10-23T04:11:38;14.00;99.90
15777;DHT22;7989;51.198;6.676;2022-10-23T04:14:04;14.00;99.90
15777;DHT22;7989;51.198;6.676;2022-10-23T04:16:31;13.90;99.90
15777;DHT22;7989;51.198;6.676;2022-10-23T04:18:58;13.90;99.90
15777;DHT22;7989;51.198;6.676;2022-10-23T04:21:25;13.90;99.90
15777;DHT22;7989;51.198;6.676;2022-10-23T04:23:51;13.90;99.90
15777;DHT22;7989;51.198;6.676;2022-10-23T04:26:20;13.90;99.90
15777;DHT22;7989;51.198;6.676;2022-10-23T04:28:46;13.90;99.90
15777;DHT22;7989;51.198;6.676;2022-10-23T04:31:13;13.80;99.90
15777;DHT22;7989;51.198;6.676;2022-10-23T04:33:40;13.80;99.90
15777;DHT22;7989;51.198;6.676;2022-10-23T04:36:08;13.80;99.90
15777;DHT22;7989;51.198;6.676;2022-10-23T04:38:35;13.80;99.90
15777;DHT22;7989;51.198;6.676;2022-10-23T04:41:02;13.80;99.90
15777;DHT22;7989;51.198;6.676;2022-10-23T04:43:30;13.70;99.90
15777;DHT22;7989;51.198;6.676;2022-10-23T04:45:58;13.70;99.90
15777;DHT22;7989;51.198;6.676;2022-10-23T04:48:25;13.70;99.90
15777;DHT22;7989;51.198;6.676;2022-10-23T04:50:55;13.70;99.90
15777;DHT22;7989;51.198;6.676;2022-10-23T04:53:23;13.70;99.90
15777;DHT22;7989;51.198;6.676;2022-10-23T04:55:50;13.70;99.90
15777;DHT22;7989;51.198;6.676;2022-10-23T04:58:17;13.70;99.90
15777;DHT22;7989;51.198;6.676;2022-10-23T05:00:46;13.70;99.90
15777;DHT22;7989;51.198;6.676;2022-10-23T05:03:13;13.80;99.90
15777;DHT22;7989;51.198;6.676;2022-10-23T05:05:41;13.80;99.90
15777;DHT22;7989;51.198;6.676;2022-10-23T05:08:08;13.90;99.90
15777;DHT22;7989;51.198;6.676;2022-10-23T05:10:35;13.90;99.90
15777;DHT22;7989;51.198;6.676;2022-10-23T05:13:03;13.90;99.90
15777;DHT22;7989;51.198;6.676;2022-10-23T05:15:30;13.90;99.90
15777;DHT22;7989;51.198;6.676;2022-10-23T05:18:02;13.90;99.90
15777;DHT22;7989;51.198;6.676;2022-10-23T05:20:35;13.90;99.90
15777;DHT22;7989;51.198;6.676;2022-10-23T05:23:02;13.90;99.90
15777;DHT22;7989;51.198;6.676;2022-10-23T05:25:32;13.90;99.90
15777;DHT22;7989;51.198;6.676;2022-10-23T05:27:58;13.90;99.90
15777;DHT22;7989;51.198;6.676;2022-10-23T05:30:25;13.90;99.90
15777;DHT22;7989;51.198;6.676;2022-10-23T05:32:53;13.90;99.90
15777;DHT22;7989;51.198;6.676;2022-10-23T05:35:22;13.90;99.90
15777;DHT22;7989;51.198;6.676;2022-10-23T05:37:50;13.90;99.90
15777;DHT22;7989;51.198;6.676;2022-10-23T05:40:18;13.90;99.90
15777;DHT22;7989;51.198;6.676;2022-10-23T05:42:45;13.90;99.90
15777;DHT22;7989;51.198;6.676;2022-10-23T05:45:12;13.90;99.90
15777;DHT22;7989;51.198;6.676;2022-10-23T05:47:38;13.90;99.90
15777;DHT22;7989;51.198;6.676;2022-10-23T05:50:05;13.90;99.90
15777;DHT22;7989;51.198;6.676;2022-10-23T05:52:34;13.90;99.90
15777;DHT22;7989;51.198;6.676;2022-10-23T05:55:01;13.90;99.90
15777;DHT22;7989;51.198;6.676;2022-10-23T05:57:30;13.90;99.90
15777;DHT22;7989;51.198;6.676;2022-10-23T05:59:57;13.90;99.90
15777;DHT22;7989;51.198;6.676;2022-10-23T06:02:24;13.90;99.90
15777;DHT22;7989;51.198;6.676;2022-10-23T06:04:51;13.80;99.90
15777;DHT22;7989;51.198;6.676;2022-10-23T06:07:22;13.90;99.90
15777;DHT22;7989;51.198;6.676;2022-10-23T06:09:50;13.90;99.90
15777;DHT22;7989;51.198;6.676;2022-10-23T06:12:18;13.90;99.90
15777;DHT22;7989;51.198;6.676;2022-10-23T06:14:45;13.90;99.90
15777;DHT22;7989;51.198;6.676;2022-10-23T06:17:12;13.90;99.90
15777;DHT22;7989;51.198;6.676;2022-10-23T06:19:39;13.90;99.90
15777;DHT22;7989;51.198;6.676;2022-10-23T06:22:06;13.90;99.90
15777;DHT22;7989;51.198;6.676;2022-10-23T06:24:33;13.90;99.90
15777;DHT22;7989;51.198;6.676;2022-10-23T06:27:01;13.90;99.90
15777;DHT22;7989;51.198;6.676;2022-10-23T06:29:28;13.90;99.90
15777;DHT22;7989;51.198;6.676;2022-10-23T06:31:54;14.00;99.90
15777;DHT22;7989;51.198;6.676;2022-10-23T06:34:21;14.00;99.90
15777;DHT22;7989;51.198;6.676;2022-10-23T06:36:48;14.00;99.90
15777;DHT22;7989;51.198;6.676;2022-10-23T06:39:15;14.10;99.90
15777;DHT22;7989;51.198;6.676;2022-10-23T06:41:42;14.10;99.90
15777;DHT22;7989;51.198;6.676;2022-10-23T06:44:11;14.20;99.90
15777;DHT22;7989;51.198;6.676;2022-10-23T06:46:38;14.20;99.90
15777;DHT22;7989;51.198;6.676;2022-10-23T06:49:04;14.20;99.90
15777;DHT22;7989;51.198;6.676;2022-10-23T06:51:31;14.20;99.90
15777;DHT22;7989;51.198;6.676;2022-10-23T06:53:58;14.20;99.90
15777;DHT22;7989;51.198;6.676;2022-10-23T06:56:25;14.20;99.90
15777;DHT22;7989;51.198;6.676;2022-10-23T06:58:53;14.30;99.90
15777;DHT22;7989;51.198;6.676;2022-10-23T07:01:22;14.30;99.90
15777;DHT22;7989;51.198;6.676;2022-10-23T07:03:50;14.30;99.90
15777;DHT22;7989;51.198;6.676;2022-10-23T07:06:17;14.30;99.90
15777;DHT22;7989;51.198;6.676;2022-10-23T07:08:43;14.40;99.90
15777;DHT22;7989;51.198;6.676;2022-10-23T07:11:11;14.40;99.90
15777;DHT22;7989;51.198;6.676;2022-10-23T07:13:38;14.40;99.90
15777;DHT22;7989;51.198;6.676;2022-10-23T07:16:11;14.50;99.90
15777;DHT22;7989;51.198;6.676;2022-10-23T07:18:39;14.50;99.90
15777;DHT22;7989;51.198;6.676;2022-10-23T07:21:06;14.60;99.90
15777;DHT22;7989;51.198;6.676;2022-10-23T07:23:34;14.60;99.90
15777;DHT22;7989;51.198;6.676;2022-10-23T07:26:05;14.70;99.90
15777;DHT22;7989;51.198;6.676;2022-10-23T07:28:32;14.70;99.90
15777;DHT22;7989;51.198;6.676;2022-10-23T07:30:59;14.80;99.90
15777;DHT22;7989;51.198;6.676;2022-10-23T07:33:26;14.90;99.90
15777;DHT22;7989;51.198;6.676;2022-10-23T07:35:55;14.90;99.90
15777;DHT22;7989;51.198;6.676;2022-10-23T07:38:22;15.00;99.90
15777;DHT22;7989;51.198;6.676;2022-10-23T07:40:49;15.10;99.90
15777;DHT22;7989;51.198;6.676;2022-10-23T07:43:16;15.10;99.90
15777;DHT22;7989;51.198;6.676;2022-10-23T07:45:46;15.30;99.90
15777;DHT22;7989;51.198;6.676;2022-10-23T07:48:13;15.30;99.90
15777;DHT22;7989;51.198;6.676;2022-10-23T07:50:39;15.50;99.90
15777;DHT22;7989;51.198;6.676;2022-10-23T07:53:10;15.60;99.90
15777;DHT22;7989;51.198;6.676;2022-10-23T07:55:40;15.80;99.90
15777;DHT22;7989;51.198;6.676;2022-10-23T07:58:06;15.90;99.90
15777;DHT22;7989;51.198;6.676;2022-10-23T08:00:33;16.00;99.90
15777;DHT22;7989;51.198;6.676;2022-10-23T08:03:00;16.10;99.90
15777;DHT22;7989;51.198;6.676;2022-10-23T08:05:27;16.20;99.90
15777;DHT22;7989;51.198;6.676;2022-10-23T08:07:54;16.30;99.90
15777;DHT22;7989;51.198;6.676;2022-10-23T08:10:22;16.40;99.90
15777;DHT22;7989;51.198;6.676;2022-10-23T08:12:49;16.50;99.90
15777;DHT22;7989;51.198;6.676;2022-10-23T08:15:16;16.70;99.90
15777;DHT22;7989;51.198;6.676;2022-10-23T08:17:43;16.90;99.90
15777;DHT22;7989;51.198;6.676;2022-10-23T08:20:10;17.40;99.90
15777;DHT22;7989;51.198;6.676;2022-10-23T08:22:38;17.70;99.90
15777;DHT22;7989;51.198;6.676;2022-10-23T08:25:05;17.50;99.90
15777;DHT22;7989;51.198;6.676;2022-10-23T08:27:33;17.50;99.90
15777;DHT22;7989;51.198;6.676;2022-10-23T08:30:00;17.80;99.90
15777;DHT22;7989;51.198;6.676;2022-10-23T08:32:28;18.50;99.90
15777;DHT22;7989;51.198;6.676;2022-10-23T08:34:55;18.70;99.90
15777;DHT22;7989;51.198;6.676;2022-10-23T08:37:21;18.30;99.90
15777;DHT22;7989;51.198;6.676;2022-10-23T08:39:48;18.10;99.90
15777;DHT22;7989;51.198;6.676;2022-10-23T08:42:20;17.90;99.90
15777;DHT22;7989;51.198;6.676;2022-10-23T08:44:58;17.70;99.90
15777;DHT22;7989;51.198;6.676;2022-10-23T08:47:29;17.80;99.90
15777;DHT22;7989;51.198;6.676;2022-10-23T08:50:02;17.80;99.90
15777;DHT22;7989;51.198;6.676;2022-10-23T08:52:36;17.90;99.90
15777;DHT22;7989;51.198;6.676;2022-10-23T08:55:14;18.00;99.90
15777;DHT22;7989;51.198;6.676;2022-10-23T08:57:46;18.00;99.90
15777;DHT22;7989;51.198;6.676;2022-10-23T09:00:17;18.20;99.90
15777;DHT22;7989;51.198;6.676;2022-10-23T09:02:45;18.20;99.90
15777;DHT22;7989;51.198;6.676;2022-10-23T09:05:16;18.30;99.90
15777;DHT22;7989;51.198;6.676;2022-10-23T09:07:59;18.60;99.90
15777;DHT22;7989;51.198;6.676;2022-10-23T09:10:45;19.00;99.90
15777;DHT22;7989;51.198;6.676;2022-10-23T09:13:36;19.10;99.90
15777;DHT22;7989;51.198;6.676;2022-10-23T09:16:14;19.30;99.90
15777;DHT22;7989;51.198;6.676;2022-10-23T09:18:42;19.20;99.90
15777;DHT22;7989;51.198;6.676;2022-10-23T09:21:09;19.00;99.90
15777;DHT22;7989;51.198;6.676;2022-10-23T09:23:37;18.70;99.90
15777;DHT22;7989;51.198;6.676;2022-10-23T09:26:09;18.20;99.90
15777;DHT22;7989;51.198;6.676;2022-10-23T09:28:44;18.00;99.90
15777;DHT22;7989;51.198;6.676;2022-10-23T09:31:13;17.70;99.90
15777;DHT22;7989;51.198;6.676;2022-10-23T09:33:40;17.70;99.90
15777;DHT22;7989;51.198;6.676;2022-10-23T09:36:17;17.70;99.90
15777;DHT22;7989;51.198;6.676;2022-10-23T09:38:48;17.70;99.90
15777;DHT22;7989;51.198;6.676;2022-10-23T09:41:18;17.90;99.90
15777;DHT22;7989;51.198;6.676;2022-10-23T09:43:46;18.10;99.90
15777;DHT22;7989;51.198;6.676;2022-10-23T09:46:14;18.30;99.90
15777;DHT22;7989;51.198;6.676;2022-10-23T09:48:41;18.60;99.90
15777;DHT22;7989;51.198;6.676;2022-10-23T09:51:16;18.70;99.90
15777;DHT22;7989;51.198;6.676;2022-10-23T09:53:48;19.00;99.90
15777;DHT22;7989;51.198;6.676;2022-10-23T09:56:24;19.00;99.90
15777;DHT22;7989;51.198;6.676;2022-10-23T09:58:54;18.80;99.90
15777;DHT22;7989;51.198;6.676;2022-10-23T10:01:24;18.60;99.90
15777;DHT22;7989;51.198;6.676;2022-10-23T10:03:52;18.50;99.90
15777;DHT22;7989;51.198;6.676;2022-10-23T10:06:24;18.40;99.90
15777;DHT22;7989;51.198;6.676;2022-10-23T10:08:52;18.40;99.90
15777;DHT22;7989;51.198;6.676;2022-10-23T10:11:25;18.30;99.90
15777;DHT22;7989;51.198;6.676;2022-10-23T10:14:12;18.30;99.90
15777;DHT22;7989;51.198;6.676;2022-10-23T10:16:50;18.40;99.90
15777;DHT22;7989;51.198;6.676;2022-10-23T10:19:35;18.30;99.90
15777;DHT22;7989;51.198;6.676;2022-10-23T10:22:11;18.30;99.90
15777;DHT22;7989;51.198;6.676;2022-10-23T10:24:45;18.30;99.90
15777;DHT22;7989;51.198;6.676;2022-10-23T10:27:29;18.30;99.90
15777;DHT22;7989;51.198;6.676;2022-10-23T10:30:04;18.50;99.90
15777;DHT22;7989;51.198;6.676;2022-10-23T10:32:39;18.60;99.90
15777;DHT22;7989;51.198;6.676;2022-10-23T10:35:21;18.60;99.90
15777;DHT22;7989;51.198;6.676;2022-10-23T10:41:11;18.50;99.90
15777;DHT22;7989;51.198;6.676;2022-10-23T10:43:45;18.30;99.90
15777;DHT22;7989;51.198;6.676;2022-10-23T10:46:17;18.30;99.90
15777;DHT22;7989;51.198;6.676;2022-10-23T10:48:49;18.40;99.90
15777;DHT22;7989;51.198;6.676;2022-10-23T10:51:23;18.40;99.90
15777;DHT22;7989;51.198;6.676;2022-10-23T10:54:02;18.40;99.90
15777;DHT22;7989;51.198;6.676;2022-10-23T10:56:36;18.40;99.90
15777;DHT22;7989;51.198;6.676;2022-10-23T10:59:09;18.30;99.90
15777;DHT22;7989;51.198;6.676;2022-10-23T11:01:41;18.30;99.90
15777;DHT22;7989;51.198;6.676;2022-10-23T11:04:13;18.20;99.90
15777;DHT22;7989;51.198;6.676;2022-10-23T11:06:44;18.20;99.90
15777;DHT22;7989;51.198;6.676;2022-10-23T11:09:19;18.20;99.90
15777;DHT22;7989;51.198;6.676;2022-10-23T11:11:46;18.20;99.90
15777;DHT22;7989;51.198;6.676;2022-10-23T11:14:14;18.20;99.90
15777;DHT22;7989;51.198;6.676;2022-10-23T11:16:45;18.20;99.90
15777;DHT22;7989;51.198;6.676;2022-10-23T11:19:22;18.30;99.90
15777;DHT22;7989;51.198;6.676;2022-10-23T11:21:55;18.30;99.90
15777;DHT22;7989;51.198;6.676;2022-10-23T11:25:03;18.20;99.90
15777;DHT22;7989;51.198;6.676;2022-10-23T11:27:52;18.30;99.90
15777;DHT22;7989;51.198;6.676;2022-10-23T11:30:24;18.20;99.90
15777;DHT22;7989;51.198;6.676;2022-10-23T11:35:56;18.30;99.90
15777;DHT22;7989;51.198;6.676;2022-10-23T11:38:33;18.30;99.90
15777;DHT22;7989;51.198;6.676;2022-10-23T11:41:03;18.30;99.90
15777;DHT22;7989;51.198;6.676;2022-10-23T11:43:33;18.30;99.90
15777;DHT22;7989;51.198;6.676;2022-10-23T11:46:11;18.40;99.90
15777;DHT22;7989;51.198;6.676;2022-10-23T11:48:40;18.70;99.90
15777;DHT22;7989;51.198;6.676;2022-10-23T11:51:27;19.00;99.90
15777;DHT22;7989;51.198;6.676;2022-10-23T11:54:18;19.20;99.90
15777;DHT22;7989;51.198;6.676;2022-10-23T11:56:54;19.30;99.90
15777;DHT22;7989;51.198;6.676;2022-10-23T11:59:26;19.30;99.90
15777;DHT22;7989;51.198;6.676;2022-10-23T12:01:55;19.50;99.90
15777;DHT22;7989;51.198;6.676;2022-10-23T12:04:25;19.60;99.90
15777;DHT22;7989;51.198;6.676;2022-10-23T12:06:55;19.70;99.90
15777;DHT22;7989;51.198;6.676;2022-10-23T12:09:27;19.80;99.90
15777;DHT22;7989;51.198;6.676;2022-10-23T12:12:14;19.80;99.90
15777;DHT22;7989;51.198;6.676;2022-10-23T12:14:43;19.80;99.90
15777;DHT22;7989;51.198;6.676;2022-10-23T12:17:29;19.90;99.90
15777;DHT22;7989;51.198;6.676;2022-10-23T12:20:07;20.00;99.90
15777;DHT22;7989;51.198;6.676;2022-10-23T12:22:44;20.00;99.90
15777;DHT22;7989;51.198;6.676;2022-10-23T12:25:15;20.00;99.90
15777;DHT22;7989;51.198;6.676;2022-10-23T12:27:45;20.00;99.90
15777;DHT22;7989;51.198;6.676;2022-10-23T12:30:19;20.00;99.90
15777;DHT22;7989;51.198;6.676;2022-10-23T12:33:03;20.00;99.90
15777;DHT22;7989;51.198;6.676;2022-10-23T12:35:55;19.80;99.90
15777;DHT22;7989;51.198;6.676;2022-10-23T12:38:29;19.60;99.90
15777;DHT22;7989;51.198;6.676;2022-10-23T12:41:00;19.40;99.90
15777;DHT22;7989;51.198;6.676;2022-10-23T12:43:31;19.40;99.90
15777;DHT22;7989;51.198;6.676;2022-10-23T12:46:02;19.40;99.90
15777;DHT22;7989;51.198;6.676;2022-10-23T12:48:32;19.40;99.90
15777;DHT22;7989;51.198;6.676;2022-10-23T12:50:58;19.40;99.90
15777;DHT22;7989;51.198;6.676;2022-10-23T12:53:25;19.40;99.90
15777;DHT22;7989;51.198;6.676;2022-10-23T12:55:56;19.40;99.90
15777;DHT22;7989;51.198;6.676;2022-10-23T12:58:24;19.40;99.90
15777;DHT22;7989;51.198;6.676;2022-10-23T13:00:53;19.40;99.90
15777;DHT22;7989;51.198;6.676;2022-10-23T13:03:22;19.30;99.90
15777;DHT22;7989;51.198;6.676;2022-10-23T13:05:51;19.30;99.90
15777;DHT22;7989;51.198;6.676;2022-10-23T13:08:19;19.30;99.90
15777;DHT22;7989;51.198;6.676;2022-10-23T13:10:46;19.30;99.90
15777;DHT22;7989;51.198;6.676;2022-10-23T13:13:18;19.20;99.90
15777;DHT22;7989;51.198;6.676;2022-10-23T13:15:46;19.10;99.90
15777;DHT22;7989;51.198;6.676;2022-10-23T13:18:16;19.10;99.90
15777;DHT22;7989;51.198;6.676;2022-10-23T13:20:55;19.10;99.90
15777;DHT22;7989;51.198;6.676;2022-10-23T13:23:25;19.10;99.90
15777;DHT22;7989;51.198;6.676;2022-10-23T13:25:57;19.10;99.90
15777;DHT22;7989;51.198;6.676;2022-10-23T13:28:27;19.10;99.90
15777;DHT22;7989;51.198;6.676;2022-10-23T13:31:04;19.10;99.90
15777;DHT22;7989;51.198;6.676;2022-10-23T13:33:34;19.10;99.90
15777;DHT22;7989;51.198;6.676;2022-10-23T13:36:04;19.10;99.90
15777;DHT22;7989;51.198;6.676;2022-10-23T13:38:33;19.10;99.90
15777;DHT22;7989;51.198;6.676;2022-10-23T13:41:03;19.10;99.90
15777;DHT22;7989;51.198;6.676;2022-10-23T13:43:32;19.00;99.90
15777;DHT22;7989;51.198;6.676;2022-10-23T13:45:59;19.00;99.90
15777;DHT22;7989;51.198;6.676;2022-10-23T13:48:26;19.00;99.90
15777;DHT22;7989;51.198;6.676;2022-10-23T13:50:54;19.00;99.90
15777;DHT22;7989;51.198;6.676;2022-10-23T13:53:23;19.00;99.90
15777;DHT22;7989;51.198;6.676;2022-10-23T13:55:50;19.00;99.90
15777;DHT22;7989;51.198;6.676;2022-10-23T13:58:18;19.00;99.90
15777;DHT22;7989;51.198;6.676;2022-10-23T14:00:48;19.00;99.90
15777;DHT22;7989;51.198;6.676;2022-10-23T14:03:15;18.90;99.90
15777;DHT22;7989;51.198;6.676;2022-10-23T14:05:44;18.90;99.90
15777;DHT22;7989;51.198;6.676;2022-10-23T14:08:11;18.90;99.90
15777;DHT22;7989;51.198;6.676;2022-10-23T14:10:38;18.80;99.90
15777;DHT22;7989;51.198;6.676;2022-10-23T14:13:05;18.90;99.90
15777;DHT22;7989;51.198;6.676;2022-10-23T14:15:31;18.90;99.90
15777;DHT22;7989;51.198;6.676;2022-10-23T14:18:00;18.90;99.90
15777;DHT22;7989;51.198;6.676;2022-10-23T14:20:27;18.80;99.90
15777;DHT22;7989;51.198;6.676;2022-10-23T14:22:54;18.80;99.90
15777;DHT22;7989;51.198;6.676;2022-10-23T14:25:21;18.80;99.90
15777;DHT22;7989;51.198;6.676;2022-10-23T14:27:48;18.80;99.90
15777;DHT22;7989;51.198;6.676;2022-10-23T14:30:15;18.80;99.90
15777;DHT22;7989;51.198;6.676;2022-10-23T14:32:42;18.80;99.90
15777;DHT22;7989;51.198;6.676;2022-10-23T14:35:10;18.80;99.90
15777;DHT22;7989;51.198;6.676;2022-10-23T14:37:37;18.80;99.90
15777;DHT22;7989;51.198;6.676;2022-10-23T14:40:05;18.80;99.90
15777;DHT22;7989;51.198;6.676;2022-10-23T14:42:32;18.80;99.90
15777;DHT22;7989;51.198;6.676;2022-10-23T14:44:59;18.80;99.90
15777;DHT22;7989;51.198;6.676;2022-10-23T14:47:27;18.70;99.90
15777;DHT22;7989;51.198;6.676;2022-10-23T14:49:54;18.70;99.90
15777;DHT22;7989;51.198;6.676;2022-10-23T14:52:22;18.70;99.90
15777;DHT22;7989;51.198;6.676;2022-10-23T14:54:50;18.60;99.90
15777;DHT22;7989;51.198;6.676;2022-10-23T14:57:17;18.60;99.90
15777;DHT22;7989;51.198;6.676;2022-10-23T14:59:46;18.50;99.90
15777;DHT22;7989;51.198;6.676;2022-10-23T15:02:13;18.50;99.90
15777;DHT22;7989;51.198;6.676;2022-10-23T15:04:40;18.50;99.90
15777;DHT22;7989;51.198;6.676;2022-10-23T15:07:07;18.50;99.90
15777;DHT22;7989;51.198;6.676;2022-10-23T15:09:35;18.50;99.90
15777;DHT22;7989;51.198;6.676;2022-10-23T15:12:05;18.30;99.90
15777;DHT22;7989;51.198;6.676;2022-10-23T15:14:32;18.10;99.90
15777;DHT22;7989;51.198;6.676;2022-10-23T15:16:59;17.90;99.90
15777;DHT22;7989;51.198;6.676;2022-10-23T15:19:26;17.80;99.90
15777;DHT22;7989;51.198;6.676;2022-10-23T15:21:53;17.80;99.90
15777;DHT22;7989;51.198;6.676;2022-10-23T15:24:20;17.70;99.90
15777;DHT22;7989;51.198;6.676;2022-10-23T15:26:48;17.70;99.90
15777;DHT22;7989;51.198;6.676;2022-10-23T15:29:16;17.70;99.90
15777;DHT22;7989;51.198;6.676;2022-10-23T15:31:50;17.70;99.90
15777;DHT22;7989;51.198;6.676;2022-10-23T15:34:19;17.70;99.90
15777;DHT22;7989;51.198;6.676;2022-10-23T15:36:47;17.60;99.90
15777;DHT22;7989;51.198;6.676;2022-10-23T15:39:17;17.60;99.90
15777;DHT22;7989;51.198;6.676;2022-10-23T15:41:44;17.50;99.90
15777;DHT22;7989;51.198;6.676;2022-10-23T15:44:14;17.40;99.90
15777;DHT22;7989;51.198;6.676;2022-10-23T15:46:41;17.30;99.90
15777;DHT22;7989;51.198;6.676;2022-10-23T15:49:08;17.20;99.90
15777;DHT22;7989;51.198;6.676;2022-10-23T15:51:36;17.20;99.90
15777;DHT22;7989;51.198;6.676;2022-10-23T15:54:04;17.20;99.90
15777;DHT22;7989;51.198;6.676;2022-10-23T15:56:31;17.10;99.90
15777;DHT22;7989;51.198;6.676;2022-10-23T15:58:58;17.00;99.90
15777;DHT22;7989;51.198;6.676;2022-10-23T16:01:26;17.00;99.90
15777;DHT22;7989;51.198;6.676;2022-10-23T16:03:53;16.90;99.90
15777;DHT22;7989;51.198;6.676;2022-10-23T16:06:20;16.80;99.90
15777;DHT22;7989;51.198;6.676;2022-10-23T16:08:47;16.80;99.90